createdAt,value
2019-05-16T00:01:14.816Z,103034.84
2019-05-16T00:03:40.901Z,103037.95
2019-05-16T00:06:08.562Z,103037.09
2019-05-16T00:08:34.652Z,103041.53
2019-05-16T00:11:00.732Z,103037.98
2019-05-16T00:13:28.016Z,103034.45
2019-05-16T00:15:54.157Z,103037.98
2019-05-16T00:18:20.311Z,103032.65
2019-05-16T00:20:46.258Z,103033.57
2019-05-16T00:23:12.272Z,103036.68
2019-05-16T00:25:38.665Z,103042.49
2019-05-16T00:28:05.191Z,103043.37
2019-05-16T00:30:31.193Z,103040.74
2019-05-16T00:32:58.814Z,103038.14
2019-05-16T00:35:24.833Z,103036.39
2019-05-16T00:37:50.827Z,103045.79
2019-05-16T00:40:18.821Z,103042.27
2019-05-16T00:42:44.855Z,103045.88
2019-05-16T00:45:13.296Z,103044.13
2019-05-16T00:47:39.181Z,103042.42
2019-05-16T00:50:05.304Z,103042.48
2019-05-16T00:52:31.295Z,103042.06
2019-05-16T00:54:57.972Z,103046.53
2019-05-16T00:57:24.599Z,103043.02
2019-05-16T00:59:50.797Z,103051.04
2019-05-16T01:02:18.156Z,103048.41
2019-05-16T01:04:44.100Z,103050.69
2019-05-16T01:07:10.083Z,103050.68
2019-05-16T01:09:38.420Z,103041.91
2019-05-16T01:12:03.953Z,103046.30
2019-05-16T01:14:29.845Z,103045.00
2019-05-16T01:16:58.000Z,103048.09
2019-05-16T01:19:23.769Z,103046.80
2019-05-16T01:21:49.751Z,103043.25
2019-05-16T01:24:15.785Z,103044.16
2019-05-16T01:26:41.735Z,103039.31
2019-05-16T01:29:08.545Z,103039.34
2019-05-16T01:31:37.848Z,103044.69
2019-05-16T01:34:03.292Z,103042.05
2019-05-16T01:36:36.791Z,103041.67
2019-05-16T01:38:58.462Z,103037.70
2019-05-16T01:41:24.463Z,103040.81
2019-05-16T01:43:50.346Z,103047.94
2019-05-16T01:46:18.103Z,103046.64
2019-05-16T01:48:44.184Z,103045.33
2019-05-16T01:51:10.183Z,103047.58
2019-05-16T01:53:36.215Z,103056.49
2019-05-16T01:56:02.187Z,103055.19
2019-05-16T01:58:28.996Z,103052.08
2019-05-16T02:01:05.471Z,103054.35
2019-05-16T02:03:22.998Z,103055.27
2019-05-16T02:05:48.894Z,103055.27
2019-05-16T02:08:14.922Z,103055.30
2019-05-16T02:10:40.907Z,103062.81
2019-05-16T02:13:08.486Z,103066.80
2019-05-16T02:15:34.712Z,103068.61
2019-05-16T02:18:00.669Z,103073.94
2019-05-16T02:20:28.251Z,103076.12
2019-05-16T02:22:54.330Z,103069.97
2019-05-16T02:25:20.316Z,103071.33
2019-05-16T02:27:48.634Z,103067.78
2019-05-16T02:30:14.209Z,103070.87
2019-05-16T02:32:41.727Z,103070.03
2019-05-16T02:35:11.222Z,103072.69
2019-05-16T02:37:35.845Z,103070.87
2019-05-16T02:40:02.823Z,103067.34
2019-05-16T02:42:31.108Z,103071.80
2019-05-16T02:44:56.652Z,103070.03
2019-05-16T02:47:22.622Z,103068.70
2019-05-16T02:49:50.466Z,103062.92
2019-05-16T02:52:16.450Z,103068.24
2019-05-16T02:54:42.309Z,103070.47
2019-05-16T02:57:11.293Z,103065.17
2019-05-16T02:59:36.149Z,103072.23
2019-05-16T03:02:02.110Z,103073.57
2019-05-16T03:04:30.560Z,103079.34
2019-05-16T03:06:56.035Z,103075.80
2019-05-16T03:09:22.108Z,103074.88
2019-05-16T03:11:50.988Z,103073.57
2019-05-16T03:14:21.206Z,103077.98
2019-05-16T03:16:50.420Z,103074.85
2019-05-16T03:19:17.046Z,103079.30
2019-05-16T03:21:43.511Z,103082.81
2019-05-16T03:24:11.282Z,103085.92
2019-05-16T03:26:40.695Z,103083.27
2019-05-16T03:29:05.209Z,103084.56
2019-05-16T03:31:34.070Z,103083.66
2019-05-16T03:34:06.541Z,103088.92
2019-05-16T03:36:26.661Z,103087.16
2019-05-16T03:38:52.506Z,103086.27
2019-05-16T03:41:21.333Z,103092.00
2019-05-16T03:43:46.256Z,103096.89
2019-05-16T03:46:12.274Z,103091.95
2019-05-16T03:48:40.739Z,103091.89
2019-05-16T03:51:06.056Z,103070.00
2019-05-16T03:53:32.076Z,103104.69
2019-05-16T03:55:58.033Z,103101.08
2019-05-16T03:58:24.094Z,103103.76
2019-05-16T04:00:52.589Z,103100.14
2019-05-16T04:03:21.320Z,103100.09
2019-05-16T04:05:47.749Z,103092.95
2019-05-16T04:08:19.441Z,103093.34
2019-05-16T04:10:41.882Z,103089.77
2019-05-16T04:13:07.919Z,103085.27
2019-05-16T04:15:33.863Z,103087.44
2019-05-16T04:18:01.584Z,103083.38
2019-05-16T04:20:30.480Z,103087.76
2019-05-16T04:22:55.586Z,103085.03
2019-05-16T04:25:21.855Z,103088.95
2019-05-16T04:27:50.095Z,103084.89
2019-05-16T04:30:15.652Z,103090.61
2019-05-16T04:32:42.165Z,103092.32
2019-05-16T04:35:11.303Z,103085.18
2019-05-16T04:37:36.040Z,103055.66
2019-05-16T04:40:02.412Z,103093.03
2019-05-16T04:42:31.053Z,103091.16
2019-05-16T04:45:00.806Z,103087.98
2019-05-16T04:47:23.731Z,103091.89
2019-05-16T04:49:51.950Z,103088.74
2019-05-16T04:52:17.435Z,103091.37
2019-05-16T04:54:43.327Z,103087.80
2019-05-16T04:57:11.952Z,103089.95
2019-05-16T04:59:37.199Z,103078.45
2019-05-16T05:02:03.192Z,103098.20
2019-05-16T05:04:30.699Z,103091.91
2019-05-16T05:06:56.704Z,103093.14
2019-05-16T05:09:22.631Z,103096.57
2019-05-16T05:11:51.702Z,103097.39
2019-05-16T05:14:16.321Z,103099.07
2019-05-16T05:16:42.205Z,103092.74
2019-05-16T05:19:10.944Z,103097.56
2019-05-16T05:21:36.030Z,103098.80
2019-05-16T05:24:01.860Z,103101.36
2019-05-16T05:26:30.422Z,103098.59
2019-05-16T05:28:55.813Z,103107.80
2019-05-16T05:31:24.776Z,103100.59
2019-05-16T05:33:50.675Z,103105.80
2019-05-16T05:36:16.646Z,103104.34
2019-05-16T05:38:42.508Z,103104.69
2019-05-16T05:41:10.566Z,103098.79
2019-05-16T05:43:36.211Z,103098.20
2019-05-16T05:46:02.089Z,103100.34
2019-05-16T05:48:30.519Z,103098.48
2019-05-16T05:50:55.837Z,103097.52
2019-05-16T05:53:21.730Z,103090.36
2019-05-16T05:55:50.673Z,103091.58
2019-05-16T05:58:15.655Z,103086.56
2019-05-16T06:00:41.929Z,103088.26
2019-05-16T06:03:07.986Z,103097.02
2019-05-16T06:05:33.970Z,103090.70
2019-05-16T06:08:00.322Z,103095.52
2019-05-16T06:10:26.347Z,103098.11
2019-05-16T06:12:52.232Z,103087.73
2019-05-16T06:15:20.246Z,103085.44
2019-05-16T06:17:46.361Z,103084.86
2019-05-16T06:20:14.531Z,103091.83
2019-05-16T06:22:40.390Z,103088.55
2019-05-16T06:25:06.557Z,103092.91
2019-05-16T06:27:32.423Z,103092.30
2019-05-16T06:30:00.488Z,103089.00
2019-05-16T06:32:26.167Z,103084.86
2019-05-16T06:34:52.074Z,103090.00
2019-05-16T06:37:20.306Z,103089.73
2019-05-16T06:39:45.720Z,103091.34
2019-05-16T06:42:11.702Z,103093.78
2019-05-16T06:44:39.959Z,103097.09
2019-05-16T06:47:16.797Z,103088.87
2019-05-16T06:49:33.188Z,103090.02
2019-05-16T06:51:59.719Z,103094.20
2019-05-16T06:54:25.823Z,103087.77
2019-05-16T06:56:51.827Z,103084.84
2019-05-16T06:59:17.718Z,103081.48
2019-05-16T07:01:43.755Z,103084.84
2019-05-16T07:04:10.423Z,103084.25
2019-05-16T07:06:51.780Z,103076.91
2019-05-16T07:09:05.439Z,103074.97
2019-05-16T07:11:31.387Z,103078.39
2019-05-16T07:13:57.239Z,103081.31
2019-05-16T07:16:23.250Z,103081.55
2019-05-16T07:18:50.570Z,103077.33
2019-05-16T07:21:16.714Z,103077.47
2019-05-16T07:23:42.987Z,103073.72
2019-05-16T07:26:09.861Z,103077.98
2019-05-16T07:28:36.267Z,103070.23
2019-05-16T07:31:14.483Z,103076.38
2019-05-16T07:33:31.157Z,103071.20
2019-05-16T07:35:57.260Z,103072.33
2019-05-16T07:38:23.342Z,103062.70
2019-05-16T07:40:51.180Z,103061.53
2019-05-16T07:43:17.133Z,103066.66
2019-05-16T07:45:44.224Z,103063.30
2019-05-16T07:48:10.750Z,103056.81
2019-05-16T07:50:36.760Z,103056.59
2019-05-16T07:53:02.919Z,103053.67
2019-05-16T07:55:30.722Z,103053.93
2019-05-16T07:57:56.694Z,103051.92
2019-05-16T08:00:43.419Z,103051.80
2019-05-16T08:02:50.727Z,103052.52
2019-05-16T08:05:16.778Z,103055.02
2019-05-16T08:07:42.864Z,103054.84
2019-05-16T08:10:10.612Z,103044.81
2019-05-16T08:12:36.915Z,103051.73
2019-05-16T08:15:03.993Z,103047.59
2019-05-16T08:17:31.449Z,103044.33
2019-05-16T08:19:59.866Z,103040.58
2019-05-16T08:22:25.623Z,103046.19
2019-05-16T08:24:51.482Z,103046.77
2019-05-16T08:27:20.588Z,103044.69
2019-05-16T08:29:45.284Z,103040.89
2019-05-16T08:32:11.682Z,103043.39
2019-05-16T08:34:40.806Z,103045.01
2019-05-16T08:37:05.397Z,103048.30
2019-05-16T08:39:31.385Z,103043.94
2019-05-16T08:42:07.030Z,103036.97
2019-05-16T08:44:25.143Z,103036.19
2019-05-16T08:46:57.031Z,103040.77
2019-05-16T08:49:22.208Z,103034.63
2019-05-16T08:51:46.582Z,103039.29
2019-05-16T08:54:13.449Z,103042.04
2019-05-16T08:56:45.557Z,103042.59
2019-05-16T08:59:07.295Z,103036.94
2019-05-16T09:01:35.115Z,103031.77
2019-05-16T09:04:01.605Z,103036.81
2019-05-16T09:06:31.654Z,103035.19
2019-05-16T09:08:59.584Z,103029.03
2019-05-16T09:11:35.756Z,103035.45
2019-05-16T09:13:51.046Z,103035.52
2019-05-16T09:16:18.307Z,103030.73
2019-05-16T09:18:45.824Z,103025.84
2019-05-16T09:21:12.005Z,103019.09
2019-05-16T09:23:38.342Z,103014.92
2019-05-16T09:26:07.187Z,103014.02
2019-05-16T09:28:32.352Z,103013.19
2019-05-16T09:30:58.328Z,103024.48
2019-05-16T09:33:26.767Z,103016.09
2019-05-16T09:35:52.175Z,103013.47
2019-05-16T09:38:23.448Z,103018.56
2019-05-16T09:40:47.818Z,103016.67
2019-05-16T09:43:13.579Z,103016.55
2019-05-16T09:45:39.578Z,103024.44
2019-05-16T09:48:08.103Z,103023.80
2019-05-16T09:50:33.762Z,103022.77
2019-05-16T09:52:59.606Z,103026.48
2019-05-16T09:55:26.874Z,103026.72
2019-05-16T09:57:55.006Z,103032.73
2019-05-16T10:00:22.626Z,103029.03
2019-05-16T10:02:48.611Z,103031.57
2019-05-16T10:05:16.919Z,103035.25
2019-05-16T10:07:43.041Z,103034.52
2019-05-16T10:10:09.195Z,103034.78
2019-05-16T10:12:37.117Z,103035.47
2019-05-16T10:15:04.047Z,103033.66
2019-05-16T10:17:29.922Z,103041.19
2019-05-16T10:19:56.532Z,103033.17
2019-05-16T10:22:23.907Z,103025.72
2019-05-16T10:24:49.856Z,103038.50
2019-05-16T10:27:17.208Z,103037.05
2019-05-16T10:29:43.331Z,103038.62
2019-05-16T10:32:09.391Z,103038.48
2019-05-16T10:34:37.087Z,103033.47
2019-05-16T10:37:03.185Z,103042.97
2019-05-16T10:39:29.412Z,103045.38
2019-05-16T10:41:57.420Z,103045.08
2019-05-16T10:44:23.254Z,103034.84
2019-05-16T10:46:49.113Z,103028.55
2019-05-16T10:49:25.538Z,103036.30
2019-05-16T10:51:47.013Z,103027.84
2019-05-16T10:54:14.325Z,103027.11
2019-05-16T10:56:40.712Z,103037.00
2019-05-16T10:59:46.754Z,103036.84
2019-05-16T11:01:36.569Z,103039.27
2019-05-16T11:04:02.307Z,103035.92
2019-05-16T11:06:29.249Z,103043.74
2019-05-16T11:08:57.128Z,103044.13
2019-05-16T11:11:23.255Z,103042.45
2019-05-16T11:13:51.069Z,103046.58
2019-05-16T11:16:17.426Z,103039.62
2019-05-16T11:18:43.579Z,103033.03
2019-05-16T11:21:09.580Z,103035.65
2019-05-16T11:23:36.745Z,103029.05
2019-05-16T11:26:02.962Z,103032.39
2019-05-16T11:28:28.876Z,103035.25
2019-05-16T11:30:59.667Z,103035.79
2019-05-16T11:33:22.633Z,103034.03
2019-05-16T11:35:48.495Z,103040.28
2019-05-16T11:38:17.549Z,103036.87
2019-05-16T11:40:42.513Z,103035.27
2019-05-16T11:43:17.423Z,103031.05
2019-05-16T11:45:36.784Z,103021.25
2019-05-16T11:48:03.035Z,103017.70
2019-05-16T11:50:29.016Z,103018.16
2019-05-16T11:52:56.925Z,103025.42
2019-05-16T11:55:22.815Z,103017.56
2019-05-16T11:57:48.781Z,103020.13
2019-05-16T12:00:17.922Z,103020.88
2019-05-16T12:02:43.539Z,103021.70
2019-05-16T12:05:09.725Z,103028.91
2019-05-16T12:07:43.742Z,103023.31
2019-05-16T12:10:07.592Z,103024.38
2019-05-16T12:12:33.610Z,103017.88
2019-05-16T12:14:59.523Z,103015.94
2019-05-16T12:17:27.967Z,103011.32
2019-05-16T12:19:53.252Z,103012.47
2019-05-16T12:22:19.203Z,103017.64
2019-05-16T12:24:47.573Z,103012.30
2019-05-16T12:27:12.884Z,103011.91
2019-05-16T12:29:38.769Z,103003.27
2019-05-16T12:32:07.212Z,103004.64
2019-05-16T12:34:32.525Z,103006.04
2019-05-16T12:36:58.519Z,103006.17
2019-05-16T12:39:26.752Z,102986.38
2019-05-16T12:41:52.279Z,103007.58
2019-05-16T12:44:18.153Z,102998.67
2019-05-16T12:46:44.229Z,103003.86
2019-05-16T12:49:10.078Z,103001.16
2019-05-16T12:51:36.993Z,103000.57
2019-05-16T12:54:03.229Z,103003.91
2019-05-16T12:56:29.194Z,103000.69
2019-05-16T12:58:55.047Z,102997.89
2019-05-16T13:01:21.592Z,102999.16
2019-05-16T13:03:48.170Z,102994.05
2019-05-16T13:06:14.097Z,103001.44
2019-05-16T13:08:40.161Z,103002.07
2019-05-16T13:11:07.181Z,103002.71
2019-05-16T13:13:33.410Z,102984.91
2019-05-16T13:15:59.529Z,103007.83
2019-05-16T13:18:27.520Z,103008.72
2019-05-16T13:20:53.027Z,103004.20
2019-05-16T13:23:19.099Z,103006.81
2019-05-16T13:25:47.852Z,102998.45
2019-05-16T13:28:12.850Z,102993.64
2019-05-16T13:30:38.938Z,102981.41
2019-05-16T13:33:07.010Z,102992.64
2019-05-16T13:35:32.584Z,102984.45
2019-05-16T13:37:58.656Z,102987.08
2019-05-16T13:40:24.504Z,102983.60
2019-05-16T13:42:50.372Z,102983.25
2019-05-16T13:45:17.857Z,102985.61
2019-05-16T13:47:44.061Z,102976.03
2019-05-16T13:50:12.200Z,102976.44
2019-05-16T13:52:38.079Z,102978.87
2019-05-16T13:55:06.896Z,102974.36
2019-05-16T13:57:32.507Z,102979.77
2019-05-16T13:59:59.597Z,102979.91
2019-05-16T14:02:26.692Z,102977.77
2019-05-16T14:04:52.626Z,102973.97
2019-05-16T14:07:18.639Z,102976.75
2019-05-16T14:09:46.962Z,102979.82
2019-05-16T14:12:12.382Z,102971.89
2019-05-16T14:14:42.366Z,102972.39
2019-05-16T14:17:14.170Z,102969.52
2019-05-16T14:19:33.853Z,102962.16
2019-05-16T14:21:59.955Z,102968.19
2019-05-16T14:24:28.207Z,102960.49
2019-05-16T14:26:53.491Z,102956.69
2019-05-16T14:29:19.650Z,102954.15
2019-05-16T14:31:46.925Z,102953.57
2019-05-16T14:34:13.040Z,102949.52
2019-05-16T14:36:40.983Z,102959.46
2019-05-16T14:39:06.952Z,102960.88
2019-05-16T14:41:32.809Z,102959.14
2019-05-16T14:43:59.000Z,102959.14
2019-05-16T14:46:27.228Z,102954.94
2019-05-16T14:48:52.592Z,102952.16
2019-05-16T14:51:18.591Z,102959.28
2019-05-16T14:53:46.904Z,102954.61
2019-05-16T14:56:12.224Z,102945.49
2019-05-16T14:58:38.401Z,102945.66
2019-05-16T15:01:04.261Z,102942.41
2019-05-16T15:03:30.148Z,102944.62
2019-05-16T15:05:58.781Z,102944.05
2019-05-16T15:08:23.826Z,102940.22
2019-05-16T15:10:49.653Z,102942.55
2019-05-16T15:13:17.454Z,102936.02
2019-05-16T15:15:43.533Z,102937.66
2019-05-16T15:18:09.543Z,102935.20
2019-05-16T15:20:35.608Z,102936.47
2019-05-16T15:23:01.529Z,102935.45
2019-05-16T15:25:27.516Z,102932.70
2019-05-16T15:27:53.633Z,102932.59
2019-05-16T15:30:21.397Z,102926.76
2019-05-16T15:32:48.435Z,102926.94
2019-05-16T15:35:17.788Z,102931.22
2019-05-16T15:37:43.093Z,102930.72
2019-05-16T15:40:09.377Z,102930.38
2019-05-16T15:42:37.352Z,102932.81
2019-05-16T15:45:06.960Z,102931.37
2019-05-16T15:47:32.791Z,102920.45
2019-05-16T15:49:59.792Z,102924.62
2019-05-16T15:52:27.461Z,102923.67
2019-05-16T15:54:54.161Z,102924.34
2019-05-16T15:57:20.214Z,102913.23
2019-05-16T15:59:46.968Z,102922.60
2019-05-16T16:02:12.982Z,102917.38
2019-05-16T16:04:38.936Z,102925.69
2019-05-16T16:07:07.613Z,102923.23
2019-05-16T16:09:32.631Z,102917.87
2019-05-16T16:12:01.031Z,102918.23
2019-05-16T16:14:27.507Z,102910.55
2019-05-16T16:16:53.601Z,102911.34
2019-05-16T16:19:19.656Z,102910.09
2019-05-16T16:21:47.294Z,102910.80
2019-05-16T16:24:13.235Z,102911.84
2019-05-16T16:26:39.194Z,102910.41
2019-05-16T16:29:07.335Z,102913.88
2019-05-16T16:31:32.961Z,102916.38
2019-05-16T16:33:58.963Z,102914.91
2019-05-16T16:36:27.187Z,102916.77
2019-05-16T16:38:52.555Z,102918.46
2019-05-16T16:41:18.511Z,102922.42
2019-05-16T16:43:44.355Z,102917.28
2019-05-16T16:46:13.528Z,102920.53
2019-05-16T16:48:38.155Z,102922.84
2019-05-16T16:51:06.364Z,102926.59
2019-05-16T16:53:31.825Z,102925.16
2019-05-16T16:55:58.089Z,102925.90
2019-05-16T16:58:26.415Z,102918.43
2019-05-16T17:00:51.853Z,102926.61
2019-05-16T17:03:17.894Z,102916.38
2019-05-16T17:05:43.780Z,102920.03
2019-05-16T17:08:09.676Z,102919.80
2019-05-16T17:10:37.973Z,102911.37
2019-05-16T17:13:03.485Z,102915.63
2019-05-16T17:15:29.474Z,102917.55
2019-05-16T17:17:57.434Z,102913.72
2019-05-16T17:20:23.206Z,102918.39
2019-05-16T17:22:49.195Z,102919.12
2019-05-16T17:25:15.237Z,102915.31
2019-05-16T17:27:41.089Z,102913.08
2019-05-16T17:30:16.996Z,102916.89
2019-05-16T17:32:42.794Z,102926.86
2019-05-16T17:35:08.761Z,102925.83
2019-05-16T17:37:37.290Z,102923.70
2019-05-16T17:40:03.075Z,102921.63
2019-05-16T17:42:28.923Z,102923.24
2019-05-16T17:44:56.567Z,102921.31
2019-05-16T17:47:22.607Z,102924.02
2019-05-16T17:49:48.465Z,102919.27
2019-05-16T17:52:16.482Z,102919.73
2019-05-16T17:54:42.361Z,102913.38
2019-05-16T17:57:08.251Z,102920.70
2019-05-16T17:59:34.264Z,102924.48
2019-05-16T18:02:00.373Z,102900.11
2019-05-16T18:04:28.174Z,102921.24
2019-05-16T18:06:57.510Z,102928.67
2019-05-16T18:09:22.021Z,102931.22
2019-05-16T18:11:47.865Z,102927.17
2019-05-16T18:14:13.846Z,102933.98
2019-05-16T18:16:52.631Z,102931.87
2019-05-16T18:19:07.912Z,102931.95
2019-05-16T18:21:33.808Z,102937.14
2019-05-16T18:23:59.803Z,102933.95
2019-05-16T18:26:26.871Z,102931.63
2019-05-16T18:28:52.853Z,102937.81
2019-05-16T18:31:18.824Z,102942.19
2019-05-16T18:33:44.688Z,102941.56
2019-05-16T18:36:10.659Z,102943.98
2019-05-16T18:38:37.289Z,102944.94
2019-05-16T18:41:03.411Z,102936.13
2019-05-16T18:43:29.446Z,102943.89
2019-05-16T18:45:56.650Z,102937.30
2019-05-16T18:48:22.766Z,102941.09
2019-05-16T18:50:48.679Z,102943.02
2019-05-16T18:53:14.514Z,102939.80
2019-05-16T18:55:40.473Z,102940.09
2019-05-16T18:58:08.592Z,102944.34
2019-05-16T19:00:34.340Z,102945.91
2019-05-16T19:03:00.280Z,102953.73
2019-05-16T19:05:26.599Z,102944.59
2019-05-16T19:07:52.628Z,102948.77
2019-05-16T19:10:18.602Z,102949.90
2019-05-16T19:12:44.558Z,102950.57
2019-05-16T19:15:10.783Z,102959.27
2019-05-16T19:17:36.785Z,102957.17
2019-05-16T19:20:06.446Z,102958.80
2019-05-16T19:22:31.662Z,102954.58
2019-05-16T19:24:57.559Z,102958.91
2019-05-16T19:27:23.490Z,102962.56
2019-05-16T19:29:49.545Z,102961.06
2019-05-16T19:32:17.204Z,102963.55
2019-05-16T19:34:43.200Z,102967.33
2019-05-16T19:37:09.223Z,102971.09
2019-05-16T19:39:37.031Z,102971.28
2019-05-16T19:42:03.056Z,102971.48
2019-05-16T19:44:28.913Z,102973.02
2019-05-16T19:46:57.174Z,102968.78
2019-05-16T19:49:22.454Z,102970.78
2019-05-16T19:51:49.102Z,102970.60
2019-05-16T19:54:16.379Z,102950.48
2019-05-16T19:56:42.343Z,102977.30
2019-05-16T19:59:08.401Z,102988.35
2019-05-16T20:01:36.750Z,102985.15
2019-05-16T20:04:02.171Z,102985.39
2019-05-16T20:06:28.183Z,102988.66
2019-05-16T20:08:54.179Z,102993.75
2019-05-16T20:11:20.037Z,102993.41
2019-05-16T20:13:47.384Z,102985.05
2019-05-16T20:16:13.446Z,102989.25
2019-05-16T20:18:39.305Z,102989.42
2019-05-16T20:21:05.545Z,102990.89
2019-05-16T20:23:31.430Z,102994.69
2019-05-16T20:25:57.417Z,102989.07
2019-05-16T20:28:23.450Z,102993.70
2019-05-16T20:30:49.330Z,102992.05
2019-05-16T20:33:17.661Z,102984.19
2019-05-16T20:35:43.128Z,102983.96
2019-05-16T20:38:09.002Z,102986.88
2019-05-16T20:40:37.216Z,102988.89
2019-05-16T20:43:02.770Z,102983.75
2019-05-16T20:45:28.750Z,102983.52
2019-05-16T20:48:07.320Z,102989.50
2019-05-16T20:50:22.655Z,102984.76
2019-05-16T20:52:48.741Z,102984.52
2019-05-16T20:55:14.760Z,102982.06
2019-05-16T20:57:40.824Z,102992.95
2019-05-16T21:00:06.998Z,102993.56
2019-05-16T21:02:32.830Z,102994.61
2019-05-16T21:04:58.872Z,102990.26
2019-05-16T21:07:26.455Z,102996.66
2019-05-16T21:09:52.433Z,102998.16
2019-05-16T21:12:18.409Z,102997.42
2019-05-16T21:14:44.379Z,102998.09
2019-05-16T21:17:10.216Z,103004.48
2019-05-16T21:19:38.983Z,102997.94
2019-05-16T21:22:04.158Z,103001.17
2019-05-16T21:24:30.117Z,103000.44
2019-05-16T21:26:56.133Z,102996.17
2019-05-16T21:29:22.081Z,102999.45
2019-05-16T21:31:48.030Z,103004.52
2019-05-16T21:34:16.554Z,103002.03
2019-05-16T21:36:41.694Z,102999.55
2019-05-16T21:39:08.602Z,103001.48
2019-05-16T21:41:36.628Z,102996.77
2019-05-16T21:44:02.619Z,103001.36
2019-05-16T21:46:28.563Z,102999.69
2019-05-16T21:48:56.594Z,103007.86
2019-05-16T21:51:22.336Z,103000.91
2019-05-16T21:53:48.175Z,103009.52
2019-05-16T21:56:17.507Z,103011.39
2019-05-16T21:58:42.868Z,103008.45
2019-05-16T22:01:11.036Z,103005.91
2019-05-16T22:03:37.101Z,103008.67
2019-05-16T22:06:03.081Z,103007.88
2019-05-16T22:08:28.916Z,103011.58
2019-05-16T22:10:57.128Z,103012.16
2019-05-16T22:13:22.671Z,103010.50
2019-05-16T22:15:48.648Z,103011.53
2019-05-16T22:18:16.614Z,103016.20
2019-05-16T22:20:42.551Z,103017.19
2019-05-16T22:23:08.528Z,103018.23
2019-05-16T22:25:34.571Z,103016.58
2019-05-16T22:28:00.650Z,103015.82
2019-05-16T22:30:27.254Z,103018.13
2019-05-16T22:32:53.496Z,103015.59
2019-05-16T22:35:19.508Z,103026.84
2019-05-16T22:37:53.875Z,103019.80
2019-05-16T22:40:14.258Z,103016.35
2019-05-16T22:42:40.139Z,103016.44
2019-05-16T22:45:08.905Z,103014.70
2019-05-16T22:47:37.184Z,103007.25
2019-05-16T22:50:04.007Z,103010.49
2019-05-16T22:52:29.988Z,103006.13
2019-05-16T22:54:56.705Z,103011.13
2019-05-16T22:57:22.622Z,103004.58
2019-05-16T22:59:48.489Z,103002.91
2019-05-16T23:02:16.684Z,103001.65
2019-05-16T23:04:42.265Z,102996.42
2019-05-16T23:07:08.617Z,102996.55
2019-05-16T23:09:36.505Z,103000.63
2019-05-16T23:12:02.571Z,102999.00
2019-05-16T23:14:28.429Z,102999.52
2019-05-16T23:16:54.392Z,103000.52
2019-05-16T23:19:20.264Z,103002.89
2019-05-16T23:21:47.510Z,103006.48
2019-05-16T23:24:13.673Z,102995.88
2019-05-16T23:26:39.838Z,102993.73
2019-05-16T23:29:05.790Z,102995.09
2019-05-16T23:31:31.724Z,103000.03
2019-05-16T23:33:57.692Z,103000.14
2019-05-16T23:36:23.554Z,102996.20
2019-05-16T23:38:49.629Z,102999.91
2019-05-16T23:41:17.284Z,103000.01
2019-05-16T23:43:43.267Z,102993.89
2019-05-16T23:46:09.394Z,102997.58
2019-05-16T23:48:36.521Z,103001.65
2019-05-16T23:51:02.639Z,103007.50
2019-05-16T23:53:28.850Z,103004.04
2019-05-16T23:55:56.750Z,103001.89
2019-05-16T23:58:22.399Z,103001.98
